Observation data for O'Donnell on 11/08/2019      Previous  Date       Current Mesonet Observations  Soil Data  Daily Summary Page  Observations in Plain Language
KOES 080600Z 01009KT 02/01 A3045 RMK A01 T00170012  RH  097%=      5-min Rain = 0
KOES 080605Z 01009KT 02/01 A3045 RMK A01 T00170010  RH  097%=      5-min Rain = 0
KOES 080610Z 01010KT 02/01 A3045 RMK A01 T00160009  RH  096%=      5-min Rain = 0
KOES 080615Z 01009KT 02/01 A3045 RMK A01 T00160009  RH  096%=      5-min Rain = 0
KOES 080620Z 02008KT 02/01 A3045 RMK A01 T00170009  RH  096%=      5-min Rain = 0
KOES 080625Z 02007KT 02/01 A3045 RMK A01 T00170009  RH  096%=      5-min Rain = 0
KOES 080630Z 03008KT 02/01 A3045 RMK A01 T00170008  RH  095%=      5-min Rain = 0
KOES 080635Z 04007KT 02/01 A3045 RMK A01 T00160005  RH  094%=      5-min Rain = 0
KOES 080640Z 03007KT 02/00 A3045 RMK A01 T00160004  RH  093%=      5-min Rain = 0
KOES 080645Z 03007KT 02/01 A3045 RMK A01 T00160005  RH  094%=      5-min Rain = 0
KOES 080650Z 03007KT 02/01 A3045 RMK A01 T00150005  RH  094%=      5-min Rain = 0
KOES 080655Z 03007KT 02/01 A3045 RMK A01 T00160006  RH  095%=      5-min Rain = 0
KOES 080700Z 03007KT 02/01 A3044 RMK A01 T00150006  RH  095%=      5-min Rain = 0
KOES 080705Z 03007KT 01/01 A3044 RMK A01 T00140006  RH  096%=      5-min Rain = 0
KOES 080710Z 03007KT 01/01 A3044 RMK A01 T00140007  RH  096%=      5-min Rain = 0
KOES 080715Z 03007KT 01/01 A3044 RMK A01 T00140007  RH  097%=      5-min Rain = 0
KOES 080720Z 02007KT 01/01 A3044 RMK A01 T00140009  RH  097%=      5-min Rain = 0
KOES 080725Z 02006KT 01/01 A3044 RMK A01 T00140009  RH  098%=      5-min Rain = 0
KOES 080730Z 02007KT 01/01 A3043 RMK A01 T00140010  RH  098%=      5-min Rain = 0
KOES 080735Z 02006KT 01/01 A3043 RMK A01 T00140010  RH  098%=      5-min Rain = 0
KOES 080740Z 01006KT 01/01 A3043 RMK A01 T00140010  RH  098%=      5-min Rain = 0
KOES 080745Z 01006KT 01/01 A3043 RMK A01 T00140010  RH  098%=      5-min Rain = 0
KOES 080750Z 01006KT 01/01 A3043 RMK A01 T00140010  RH  099%=      5-min Rain = 0
KOES 080755Z 01006KT 01/01 A3043 RMK A01 T00140011  RH  099%=      5-min Rain = 0
KOES 080800Z 01006KT 02/01 A3043 RMK A01 T00150011  RH  099%=      5-min Rain = 0
KOES 080805Z 01006KT 02/01 A3043 RMK A01 T00150011  RH  099%=      5-min Rain = 0
KOES 080810Z 00005KT 02/01 A3043 RMK A01 T00150012  RH  099%=      5-min Rain = 0
KOES 080815Z 35005KT 02/01 A3043 RMK A01 T00160013  RH  099%=      5-min Rain = 0
KOES 080820Z 36008KT 02/01 A3043 RMK A01 T00160013  RH  099%=      5-min Rain = 0
KOES 080825Z 36007KT 02/01 A3043 RMK A01 T00150012  RH  099%=      5-min Rain = 0
KOES 080830Z 00007KT 02/01 A3043 RMK A01 T00150012  RH  099%=      5-min Rain = 0
KOES 080835Z 00008KT 02/01 A3042 RMK A01 T00150011  RH  099%=      5-min Rain = 0
KOES 080840Z 01009KT 01/01 A3042 RMK A01 T00140010  RH  098%=      5-min Rain = 0
KOES 080845Z 01007KT 01/01 A3042 RMK A01 T00140009  RH  098%=      5-min Rain = 0
KOES 080850Z 01007KT 01/01 A3042 RMK A01 T00140009  RH  098%=      5-min Rain = 0
KOES 080855Z 01007KT 01/01 A3042 RMK A01 T00140008  RH  097%=      5-min Rain = 0
KOES 080900Z 01007KT 02/01 A3042 RMK A01 T00150008  RH  097%=      5-min Rain = 0
KOES 080905Z 01007KT 01/01 A3042 RMK A01 T00140008  RH  097%=      5-min Rain = 0
KOES 080910Z 01008KT 01/01 A3041 RMK A01 T00140007  RH  097%=      5-min Rain = 0
KOES 080915Z 01008KT 01/01 A3042 RMK A01 T00140007  RH  096%=      5-min Rain = 0
KOES 080920Z 01007KT 01/01 A3041 RMK A01 T00140007  RH  096%=      5-min Rain = 0
KOES 080925Z 00007KT 01/01 A3041 RMK A01 T00130007  RH  097%=      5-min Rain = 0.01
KOES 080930Z 01007KT 01/01 A3041 RMK A01 T00130007  RH  097%=      5-min Rain = 0
KOES 080935Z 01006KT 01/01 A3041 RMK A01 T00130007  RH  097%=      5-min Rain = 0
KOES 080940Z 01006KT 01/01 A3041 RMK A01 T00130008  RH  097%=      5-min Rain = 0
KOES 080945Z 01005KT 01/01 A3041 RMK A01 T00130008  RH  098%=      5-min Rain = 0
KOES 080950Z 01006KT 01/01 A3041 RMK A01 T00130008  RH  098%=      5-min Rain = 0
KOES 080955Z 00005KT 01/01 A3041 RMK A01 T00140009  RH  098%=      5-min Rain = 0
KOES 081000Z 36005KT 01/01 A3041 RMK A01 T00140009  RH  098%=      5-min Rain = 0
KOES 081005Z 00005KT 01/01 A3041 RMK A01 T00140010  RH  098%=      5-min Rain = 0
KOES 081010Z 00005KT 01/01 A3041 RMK A01 T00140009  RH  098%=      5-min Rain = 0
KOES 081015Z 35005KT 01/01 A3041 RMK A01 T00140009  RH  098%=      5-min Rain = 0
KOES 081020Z 35005KT 01/01 A3042 RMK A01 T00140009  RH  098%=      5-min Rain = 0
KOES 081025Z 36005KT 02/01 A3042 RMK A01 T00150010  RH  098%=      5-min Rain = 0
KOES 081030Z 35004KT 02/01 A3042 RMK A01 T00150010  RH  098%=      5-min Rain = 0
KOES 081035Z 35004KT 02/01 A3042 RMK A01 T00160012  RH  098%=      5-min Rain = 0
KOES 081040Z 35005KT 02/01 A3042 RMK A01 T00150011  RH  098%=      5-min Rain = 0
KOES 081045Z 00004KT 02/01 A3041 RMK A01 T00150012  RH  099%=      5-min Rain = 0
KOES 081050Z 00004KT 02/01 A3041 RMK A01 T00160012  RH  099%=      5-min Rain = 0
KOES 081055Z 01004KT 02/01 A3041 RMK A01 T00160012  RH  099%=      5-min Rain = 0
KOES 081100Z 02004KT 02/01 A304 RMK A01 T00160012  RH  099%=      5-min Rain = 0
KOES 081105Z 02005KT 02/01 A304 RMK A01 T00160013  RH  099%=      5-min Rain = 0
KOES 081110Z 02005KT 02/01 A304 RMK A01 T00170013  RH  099%=      5-min Rain = 0
KOES 081115Z 03005KT 02/01 A304 RMK A01 T00170013  RH  099%=      5-min Rain = 0
KOES 081120Z 01004KT 02/01 A304 RMK A01 T00170014  RH  099%=      5-min Rain = 0
KOES 081125Z 00004KT 02/01 A3041 RMK A01 T00170014  RH  099%=      5-min Rain = 0
KOES 081130Z 35004KT 02/01 A3041 RMK A01 T00170014  RH  099%=      5-min Rain = 0
KOES 081135Z 34004KT 02/02 A304 RMK A01 T00180015  RH  099%=      5-min Rain = 0
KOES 081140Z 35004KT 02/02 A304 RMK A01 T00180015  RH  099%=      5-min Rain = 0
KOES 081145Z 35005KT 02/02 A3041 RMK A01 T00190016  RH  099%=      5-min Rain = 0
KOES 081150Z 35004KT 02/02 A304 RMK A01 T00190017  RH  099%=      5-min Rain = 0
KOES 081155Z 35005KT 02/02 A304 RMK A01 T00200017  RH  099%=      5-min Rain = 0
KOES 081200Z 34005KT 02/02 A304 RMK A01 T00190016  RH  099%=      5-min Rain = 0
KOES 081205Z 34004KT 02/02 A304 RMK A01 T00200016  RH  099%=      5-min Rain = 0
KOES 081210Z 34005KT 02/02 A304 RMK A01 T00200017  RH  099%=      5-min Rain = 0
KOES 081215Z 34004KT 02/02 A3041 RMK A01 T00210017  RH  099%=      5-min Rain = 0
KOES 081220Z 34004KT 02/02 A3041 RMK A01 T00210017  RH  099%=      5-min Rain = 0
KOES 081225Z 35004KT 02/02 A3041 RMK A01 T00210017  RH  099%=      5-min Rain = 0
KOES 081230Z 35004KT 02/02 A3041 RMK A01 T00220018  RH  099%=      5-min Rain = 0
KOES 081235Z 35005KT 02/02 A304 RMK A01 T00220018  RH  098%=      5-min Rain = 0
KOES 081240Z 00004KT 02/02 A304 RMK A01 T00220018  RH  098%=      5-min Rain = 0
KOES 081245Z 00005KT 02/02 A304 RMK A01 T00230018  RH  098%=      5-min Rain = 0
KOES 081250Z 02004KT 02/02 A304 RMK A01 T00230018  RH  098%=      5-min Rain = 0
KOES 081255Z 01004KT 02/02 A304 RMK A01 T00230018  RH  098%=      5-min Rain = 0
KOES 081300Z 01005KT 02/02 A304 RMK A01 T00230018  RH  098%=      5-min Rain = 0
KOES 081305Z 36004KT 02/02 A304 RMK A01 T00230018  RH  098%=      5-min Rain = 0
KOES 081310Z 02004KT 02/02 A304 RMK A01 T00230019  RH  098%=      5-min Rain = 0
KOES 081315Z 01004KT 02/02 A304 RMK A01 T00230019  RH  098%=      5-min Rain = 0
KOES 081320Z 03003KT 02/02 A304 RMK A01 T00230018  RH  098%=      5-min Rain = 0
KOES 081325Z 03003KT 02/02 A304 RMK A01 T00230018  RH  098%=      5-min Rain = 0
KOES 081330Z 06003KT 02/02 A304 RMK A01 T00230018  RH  098%=      5-min Rain = 0
KOES 081335Z 07003KT 02/02 A304 RMK A01 T00220017  RH  098%=      5-min Rain = 0
KOES 081340Z 05003KT 02/02 A304 RMK A01 T00220017  RH  098%=      5-min Rain = 0
KOES 081345Z 02003KT 02/02 A3041 RMK A01 T00240019  RH  098%=      5-min Rain = 0
KOES 081350Z 02004KT 03/02 A304 RMK A01 T00250020  RH  098%=      5-min Rain = 0
KOES 081355Z 03004KT 03/02 A304 RMK A01 T00250020  RH  098%=      5-min Rain = 0
KOES 081400Z 04004KT 03/02 A304 RMK A01 T00250019  RH  097%=      5-min Rain = 0
KOES 081405Z 02004KT 03/02 A3041 RMK A01 T00250020  RH  097%=      5-min Rain = 0
KOES 081410Z 04003KT 03/02 A3041 RMK A01 T00260020  RH  097%=      5-min Rain = 0
KOES 081415Z 06003KT 03/02 A3041 RMK A01 T00250018  RH  096%=      5-min Rain = 0
KOES 081420Z 05002KT 03/02 A3041 RMK A01 T00260018  RH  096%=      5-min Rain = 0
KOES 081425Z 07001KT 03/02 A3041 RMK A01 T00260018  RH  096%=      5-min Rain = 0
KOES 081430Z 03001KT 03/02 A3042 RMK A01 T00280020  RH  096%=      5-min Rain = 0
KOES 081435Z 35002KT 03/02 A3042 RMK A01 T00290021  RH  095%=      5-min Rain = 0
KOES 081440Z 00002KT 03/02 A3042 RMK A01 T00300020  RH  094%=      5-min Rain = 0
KOES 081445Z 04002KT 03/02 A3042 RMK A01 T00300019  RH  094%=      5-min Rain = 0
KOES 081450Z 03002KT 03/02 A3042 RMK A01 T00300019  RH  094%=      5-min Rain = 0
KOES 081455Z 06001KT 03/02 A3042 RMK A01 T00300019  RH  094%=      5-min Rain = 0
KOES 081500Z 02001KT 03/02 A3042 RMK A01 T00310020  RH  094%=      5-min Rain = 0
KOES 081505Z 03001KT 03/02 A3042 RMK A01 T00320020  RH  093%=      5-min Rain = 0
KOES 081510Z 03001KT 03/02 A3042 RMK A01 T00330020  RH  093%=      5-min Rain = 0
KOES 081515Z 01002KT 03/02 A3043 RMK A01 T00340021  RH  093%=      5-min Rain = 0
KOES 081520Z 35002KT 04/02 A3043 RMK A01 T00350022  RH  093%=      5-min Rain = 0
KOES 081525Z 01002KT 04/02 A3043 RMK A01 T00360023  RH  093%=      5-min Rain = 0
KOES 081530Z 33002KT 04/02 A3043 RMK A01 T00360023  RH  093%=      5-min Rain = 0
KOES 081535Z 32002KT 04/02 A3043 RMK A01 T00360022  RH  092%=      5-min Rain = 0
KOES 081540Z 33003KT 04/02 A3043 RMK A01 T00360022  RH  092%=      5-min Rain = 0
KOES 081545Z 32002KT 04/02 A3043 RMK A01 T00360022  RH  092%=      5-min Rain = 0
KOES 081550Z 32002KT 04/02 A3043 RMK A01 T00370023  RH  092%=      5-min Rain = 0
KOES 081555Z 31003KT 04/02 A3043 RMK A01 T00370023  RH  092%=      5-min Rain = 0
KOES 081600Z 31003KT 04/02 A3044 RMK A01 T00370023  RH  092%=      5-min Rain = 0
KOES 081605Z 31003KT 04/02 A3043 RMK A01 T00370023  RH  092%=      5-min Rain = 0
KOES 081610Z 34004KT 04/03 A3043 RMK A01 T00380025  RH  092%=      5-min Rain = 0
KOES 081615Z 33004KT 04/03 A3043 RMK A01 T00410028  RH  093%=      5-min Rain = 0
KOES 081620Z 33004KT 04/03 A3043 RMK A01 T00410028  RH  093%=      5-min Rain = 0
KOES 081625Z 34004KT 04/03 A3043 RMK A01 T00420028  RH  092%=      5-min Rain = 0
KOES 081630Z 34003KT 04/03 A3043 RMK A01 T00430028  RH  092%=      5-min Rain = 0
KOES 081635Z 33003KT 04/03 A3042 RMK A01 T00440030  RH  092%=      5-min Rain = 0
KOES 081640Z 33002KT 04/03 A3042 RMK A01 T00440029  RH  092%=      5-min Rain = 0
KOES 081645Z 33003KT 05/03 A3042 RMK A01 T00450030  RH  092%=      5-min Rain = 0
KOES 081650Z 30001KT 05/03 A3042 RMK A01 T00450028  RH  091%=      5-min Rain = 0
KOES 081655Z 35002KT 05/03 A3042 RMK A01 T00450029  RH  091%=      5-min Rain = 0
KOES 081700Z 34002KT 05/03 A3041 RMK A01 T00470031  RH  091%=      5-min Rain = 0
KOES 081705Z 33002KT 05/03 A3042 RMK A01 T00480031  RH  090%=      5-min Rain = 0
KOES 081710Z 36002KT 05/03 A3042 RMK A01 T00500033  RH  091%=      5-min Rain = 0
KOES 081715Z 09001KT 05/03 A3041 RMK A01 T00490030  RH  089%=      5-min Rain = 0
KOES 081720Z 05001KT 05/03 A3041 RMK A01 T00490030  RH  090%=      5-min Rain = 0
KOES 081725Z 00002KT 05/03 A3041 RMK A01 T00510034  RH  090%=      5-min Rain = 0
KOES 081730Z 01002KT 05/04 A304 RMK A01 T00540036  RH  089%=      5-min Rain = 0
KOES 081735Z 33001KT 06/03 A304 RMK A01 T00550033  RH  087%=      5-min Rain = 0
KOES 081740Z 32001KT 06/03 A304 RMK A01 T00550033  RH  088%=      5-min Rain = 0
KOES 081745Z 16000KT 06/03 A304 RMK A01 T00560033  RH  087%=      5-min Rain = 0
KOES 081750Z 17002KT 06/04 A3039 RMK A01 T00570035  RH  087%=      5-min Rain = 0
KOES 081755Z 20002KT 06/03 A3039 RMK A01 T00560034  RH  087%=      5-min Rain = 0
KOES 081800Z 21001KT 06/03 A3039 RMK A01 T00570033  RH  086%=      5-min Rain = 0
KOES 081805Z 25003KT 06/04 A3038 RMK A01 T00590036  RH  087%=      5-min Rain = 0
KOES 081810Z 24001KT 06/04 A3038 RMK A01 T00590035  RH  086%=      5-min Rain = 0
KOES 081815Z 23003KT 06/04 A3038 RMK A01 T00610038  RH  087%=      5-min Rain = 0
KOES 081820Z 21002KT 06/04 A3037 RMK A01 T00620038  RH  086%=      5-min Rain = 0
KOES 081825Z 22004KT 07/04 A3037 RMK A01 T00650041  RH  087%=      5-min Rain = 0
KOES 081830Z 24003KT 06/04 A3037 RMK A01 T00640040  RH  087%=      5-min Rain = 0
KOES 081835Z 26002KT 06/04 A3037 RMK A01 T00620037  RH  086%=      5-min Rain = 0
KOES 081840Z 21003KT 07/04 A3036 RMK A01 T00660042  RH  086%=      5-min Rain = 0
KOES 081845Z 22004KT 07/04 A3035 RMK A01 T00680044  RH  087%=      5-min Rain = 0
KOES 081850Z 25003KT 07/05 A3035 RMK A01 T00700046  RH  086%=      5-min Rain = 0
KOES 081855Z 23003KT 07/05 A3035 RMK A01 T00700045  RH  086%=      5-min Rain = 0
KOES 081900Z 22004KT 07/05 A3035 RMK A01 T00730049  RH  087%=      5-min Rain = 0
KOES 081905Z 25003KT 07/05 A3035 RMK A01 T00740049  RH  086%=      5-min Rain = 0
KOES 081910Z 23005KT 08/05 A3034 RMK A01 T00760051  RH  086%=      5-min Rain = 0
KOES 081915Z 24006KT 08/06 A3034 RMK A01 T00820056  RH  086%=      5-min Rain = 0
KOES 081920Z 23007KT 08/05 A3034 RMK A01 T00800053  RH  085%=      5-min Rain = 0
KOES 081925Z 25006KT 08/05 A3033 RMK A01 T00810054  RH  085%=      5-min Rain = 0
KOES 081930Z 23005KT 08/06 A3033 RMK A01 T00830057  RH  085%=      5-min Rain = 0
KOES 081935Z 24005KT 09/06 A3032 RMK A01 T00850058  RH  085%=      5-min Rain = 0
KOES 081940Z 23007KT 09/06 A3032 RMK A01 T00900061  RH  084%=      5-min Rain = 0
KOES 081945Z 24006KT 09/06 A3032 RMK A01 T00900061  RH  084%=      5-min Rain = 0
KOES 081950Z 23007KT 09/06 A3032 RMK A01 T00880060  RH  084%=      5-min Rain = 0
KOES 081955Z 24006KT 09/06 A3032 RMK A01 T00870059  RH  084%=      5-min Rain = 0
KOES 082000Z 25004KT 09/06 A3032 RMK A01 T00870059  RH  085%=      5-min Rain = 0
KOES 082005Z 25004KT 09/06 A3032 RMK A01 T00900061  RH  084%=      5-min Rain = 0
KOES 082010Z 25005KT 09/06 A3032 RMK A01 T00910062  RH  084%=      5-min Rain = 0
KOES 082015Z 24004KT 09/06 A3031 RMK A01 T00920062  RH  083%=      5-min Rain = 0
KOES 082020Z 23004KT 09/06 A3031 RMK A01 T00910062  RH  084%=      5-min Rain = 0
KOES 082025Z 23004KT 09/06 A3031 RMK A01 T00910061  RH  083%=      5-min Rain = 0
KOES 082030Z 23004KT 09/06 A3031 RMK A01 T00900061  RH  084%=      5-min Rain = 0
KOES 082035Z 23004KT 09/06 A303 RMK A01 T00920062  RH  084%=      5-min Rain = 0
KOES 082040Z 23004KT 09/06 A303 RMK A01 T00930063  RH  084%=      5-min Rain = 0
KOES 082045Z 23004KT 10/06 A303 RMK A01 T00950064  RH  083%=      5-min Rain = 0
KOES 082050Z 23005KT 10/07 A303 RMK A01 T00970066  RH  083%=      5-min Rain = 0
KOES 082055Z 23003KT 10/07 A303 RMK A01 T00970065  RH  082%=      5-min Rain = 0
KOES 082100Z 25003KT 10/07 A303 RMK A01 T00970066  RH  083%=      5-min Rain = 0
KOES 082105Z 28003KT 10/07 A303 RMK A01 T01010069  RH  082%=      5-min Rain = 0
KOES 082110Z 25004KT 10/07 A303 RMK A01 T01020068  RH  081%=      5-min Rain = 0
KOES 082115Z 25003KT 10/07 A303 RMK A01 T01010067  RH  081%=      5-min Rain = 0
KOES 082120Z 25003KT 10/07 A303 RMK A01 T01020066  RH  081%=      5-min Rain = 0
KOES 082125Z 28001KT 10/07 A303 RMK A01 T01030068  RH  081%=      5-min Rain = 0
KOES 082130Z 22004KT 11/07 A303 RMK A01 T01050069  RH  081%=      5-min Rain = 0
KOES 082135Z 22004KT 10/07 A303 RMK A01 T01030069  RH  081%=      5-min Rain = 0
KOES 082140Z 21004KT 10/07 A303 RMK A01 T01030069  RH  082%=      5-min Rain = 0
KOES 082145Z 20002KT 11/07 A303 RMK A01 T01080069  RH  079%=      5-min Rain = 0
KOES 082150Z 22001KT 11/07 A303 RMK A01 T01090070  RH  079%=      5-min Rain = 0
KOES 082155Z 27002KT 11/07 A303 RMK A01 T01120071  RH  078%=      5-min Rain = 0
KOES 082200Z 20002KT 11/07 A303 RMK A01 T01100070  RH  078%=      5-min Rain = 0
KOES 082205Z 21004KT 11/07 A3029 RMK A01 T01110070  RH  078%=      5-min Rain = 0
KOES 082210Z 19003KT 11/07 A3029 RMK A01 T01120070  RH  078%=      5-min Rain = 0
KOES 082215Z 20002KT 11/07 A3029 RMK A01 T01130071  RH  077%=      5-min Rain = 0
KOES 082220Z 20004KT 12/07 A303 RMK A01 T01150071  RH  076%=      5-min Rain = 0
KOES 082225Z 22004KT 11/07 A303 RMK A01 T01130071  RH  077%=      5-min Rain = 0
KOES 082230Z 21004KT 11/07 A303 RMK A01 T01100071  RH  079%=      5-min Rain = 0
KOES 082235Z 20004KT 11/07 A3029 RMK A01 T01080070  RH  079%=      5-min Rain = 0
KOES 082240Z 20003KT 11/07 A3029 RMK A01 T01070070  RH  080%=      5-min Rain = 0
KOES 082245Z 21003KT 11/07 A3029 RMK A01 T01080071  RH  080%=      5-min Rain = 0
KOES 082250Z 19002KT 11/07 A3029 RMK A01 T01090070  RH  079%=      5-min Rain = 0
KOES 082255Z 17003KT 11/07 A3029 RMK A01 T01120072  RH  078%=      5-min Rain = 0
KOES 082300Z 15003KT 11/07 A303 RMK A01 T01140073  RH  078%=      5-min Rain = 0
KOES 082305Z 13003KT 11/07 A3029 RMK A01 T01130074  RH  079%=      5-min Rain = 0
KOES 082310Z 13002KT 11/07 A3029 RMK A01 T01110074  RH  080%=      5-min Rain = 0
KOES 082315Z 14002KT 11/08 A3029 RMK A01 T01100075  RH  081%=      5-min Rain = 0
KOES 082320Z 15001KT 11/07 A3029 RMK A01 T01090074  RH  081%=      5-min Rain = 0
KOES 082325Z 16002KT 11/07 A3029 RMK A01 T01080074  RH  081%=      5-min Rain = 0
KOES 082330Z 15003KT 11/07 A303 RMK A01 T01060074  RH  083%=      5-min Rain = 0
KOES 082335Z 16002KT 10/07 A303 RMK A01 T01040074  RH  084%=      5-min Rain = 0
KOES 082340Z 15003KT 10/07 A3029 RMK A01 T01010074  RH  085%=      5-min Rain = 0
KOES 082345Z 16003KT 10/07 A303 RMK A01 T01000074  RH  086%=      5-min Rain = 0
KOES 082350Z 17003KT 10/07 A303 RMK A01 T00980073  RH  087%=      5-min Rain = 0
KOES 082355Z 18005KT 10/07 A303 RMK A01 T00960072  RH  087%=      5-min Rain = 0
KOES 090000Z 18004KT 10/07 A303 RMK A01 T00950072  RH  088%=      5-min Rain = 0
KOES 090005Z 17004KT 09/07 A303 RMK A01 T00940072  RH  088%=      5-min Rain = 0
KOES 090010Z 17004KT 09/07 A303 RMK A01 T00940072  RH  089%=      5-min Rain = 0
KOES 090015Z 18004KT 09/07 A303 RMK A01 T00930072  RH  089%=      5-min Rain = 0
KOES 090020Z 17005KT 09/07 A303 RMK A01 T00910072  RH  090%=      5-min Rain = 0
KOES 090025Z 17005KT 09/07 A303 RMK A01 T00910072  RH  090%=      5-min Rain = 0
KOES 090030Z 17006KT 09/07 A3029 RMK A01 T00910071  RH  090%=      5-min Rain = 0
KOES 090035Z 18005KT 09/07 A303 RMK A01 T00900070  RH  090%=      5-min Rain = 0
KOES 090040Z 18004KT 09/07 A3029 RMK A01 T00880070  RH  091%=      5-min Rain = 0
KOES 090045Z 18004KT 09/07 A303 RMK A01 T00860069  RH  092%=      5-min Rain = 0
KOES 090050Z 18004KT 08/07 A303 RMK A01 T00840069  RH  093%=      5-min Rain = 0
KOES 090055Z 18005KT 08/07 A303 RMK A01 T00840069  RH  093%=      5-min Rain = 0
KOES 090100Z 18005KT 08/07 A303 RMK A01 T00840069  RH  093%=      5-min Rain = 0
KOES 090105Z 18005KT 08/07 A303 RMK A01 T00830068  RH  093%=      5-min Rain = 0
KOES 090110Z 18005KT 08/07 A303 RMK A01 T00820068  RH  093%=      5-min Rain = 0
KOES 090115Z 18005KT 08/07 A303 RMK A01 T00810067  RH  093%=      5-min Rain = 0
KOES 090120Z 18005KT 08/07 A303 RMK A01 T00800067  RH  094%=      5-min Rain = 0
KOES 090125Z 18005KT 08/07 A303 RMK A01 T00790067  RH  094%=      5-min Rain = 0
KOES 090130Z 19006KT 08/07 A303 RMK A01 T00780067  RH  095%=      5-min Rain = 0
KOES 090135Z 19006KT 08/07 A303 RMK A01 T00770066  RH  095%=      5-min Rain = 0
KOES 090140Z 19006KT 08/07 A303 RMK A01 T00760066  RH  095%=      5-min Rain = 0
KOES 090145Z 19005KT 08/07 A303 RMK A01 T00760065  RH  096%=      5-min Rain = 0
KOES 090150Z 19005KT 08/07 A303 RMK A01 T00750065  RH  096%=      5-min Rain = 0
KOES 090155Z 19004KT 07/06 A303 RMK A01 T00740064  RH  096%=      5-min Rain = 0
KOES 090200Z 19003KT 07/06 A303 RMK A01 T00730064  RH  096%=      5-min Rain = 0
KOES 090205Z 19004KT 07/06 A303 RMK A01 T00720063  RH  096%=      5-min Rain = 0
KOES 090210Z 20004KT 07/06 A303 RMK A01 T00710063  RH  097%=      5-min Rain = 0
KOES 090215Z 20005KT 07/06 A303 RMK A01 T00700062  RH  097%=      5-min Rain = 0
KOES 090220Z 21005KT 07/06 A3031 RMK A01 T00700062  RH  097%=      5-min Rain = 0
KOES 090225Z 21005KT 07/06 A3031 RMK A01 T00680061  RH  097%=      5-min Rain = 0
KOES 090230Z 21005KT 07/06 A3031 RMK A01 T00670060  RH  097%=      5-min Rain = 0
KOES 090235Z 21005KT 07/06 A3031 RMK A01 T00660060  RH  098%=      5-min Rain = 0
KOES 090240Z 20005KT 07/06 A3031 RMK A01 T00660059  RH  098%=      5-min Rain = 0
KOES 090245Z 20005KT 07/06 A3031 RMK A01 T00660059  RH  098%=      5-min Rain = 0
KOES 090250Z 20005KT 07/06 A3031 RMK A01 T00660059  RH  097%=      5-min Rain = 0
KOES 090255Z 20005KT 07/06 A3031 RMK A01 T00660058  RH  097%=      5-min Rain = 0
KOES 090300Z 20005KT 07/06 A3031 RMK A01 T00660058  RH  097%=      5-min Rain = 0
KOES 090305Z 20005KT 07/06 A3031 RMK A01 T00650057  RH  097%=      5-min Rain = 0
KOES 090310Z 20005KT 06/06 A3031 RMK A01 T00640056  RH  097%=      5-min Rain = 0
KOES 090315Z 20005KT 06/06 A303 RMK A01 T00630055  RH  097%=      5-min Rain = 0
KOES 090320Z 20005KT 06/06 A303 RMK A01 T00620055  RH  097%=      5-min Rain = 0
KOES 090325Z 20005KT 06/05 A303 RMK A01 T00610054  RH  097%=      5-min Rain = 0
KOES 090330Z 20004KT 06/05 A303 RMK A01 T00600053  RH  098%=      5-min Rain = 0
KOES 090335Z 19004KT 06/05 A303 RMK A01 T00600054  RH  098%=      5-min Rain = 0
KOES 090340Z 19004KT 06/05 A303 RMK A01 T00600054  RH  098%=      5-min Rain = 0
KOES 090345Z 20004KT 06/05 A303 RMK A01 T00590053  RH  098%=      5-min Rain = 0
KOES 090350Z 20004KT 06/05 A303 RMK A01 T00580052  RH  098%=      5-min Rain = 0
KOES 090355Z 20005KT 06/05 A303 RMK A01 T00560050  RH  098%=      5-min Rain = 0
KOES 090400Z 19005KT 06/05 A303 RMK A01 T00560050  RH  098%=      5-min Rain = 0
KOES 090405Z 19005KT 06/05 A303 RMK A01 T00560050  RH  098%=      5-min Rain = 0
KOES 090410Z 19005KT 06/05 A303 RMK A01 T00570052  RH  099%=      5-min Rain = 0
KOES 090415Z 19005KT 06/05 A303 RMK A01 T00570052  RH  099%=      5-min Rain = 0
KOES 090420Z 19005KT 06/05 A303 RMK A01 T00580052  RH  099%=      5-min Rain = 0
KOES 090425Z 20005KT 06/05 A303 RMK A01 T00570051  RH  098%=      5-min Rain = 0
KOES 090430Z 20005KT 06/05 A303 RMK A01 T00550050  RH  098%=      5-min Rain = 0
KOES 090435Z 21005KT 06/05 A303 RMK A01 T00550050  RH  099%=      5-min Rain = 0
KOES 090440Z 20004KT 05/05 A303 RMK A01 T00540049  RH  099%=      5-min Rain = 0
KOES 090445Z 20005KT 05/05 A303 RMK A01 T00540049  RH  099%=      5-min Rain = 0
KOES 090450Z 20005KT 05/05 A303 RMK A01 T00530048  RH  099%=      5-min Rain = 0
KOES 090455Z 20005KT 05/05 A303 RMK A01 T00530048  RH  099%=      5-min Rain = 0
KOES 090500Z 21005KT 05/05 A303 RMK A01 T00520048  RH  099%=      5-min Rain = 0
KOES 090505Z 21005KT 05/05 A303 RMK A01 T00510047  RH  099%=      5-min Rain = 0
KOES 090510Z 21005KT 05/05 A303 RMK A01 T00490045  RH  099%=      5-min Rain = 0
KOES 090515Z 21005KT 05/04 A303 RMK A01 T00480044  RH  099%=      5-min Rain = 0
KOES 090520Z 22005KT 05/04 A303 RMK A01 T00480044  RH  100%=      5-min Rain = 0
KOES 090525Z 22005KT 05/05 A303 RMK A01 T00480045  RH  100%=      5-min Rain = 0
KOES 090530Z 22004KT 05/04 A303 RMK A01 T00470043  RH  100%=      5-min Rain = 0
KOES 090535Z 22004KT 05/04 A303 RMK A01 T00450042  RH  100%=      5-min Rain = 0
KOES 090540Z 22004KT 04/04 A303 RMK A01 T00440041  RH  100%=      5-min Rain = 0
KOES 090545Z 22004KT 04/04 A303 RMK A01 T00430040  RH  100%=      5-min Rain = 0
KOES 090550Z 22005KT 04/04 A303 RMK A01 T00430040  RH  100%=      5-min Rain = 0
KOES 090555Z 21006KT 04/04 A303 RMK A01 T00430040  RH  100%=      5-min Rain = 0

Page generated in 0.0196 seconds.